Time;durP1;ratioP1;P1;durP2;ratioP2;P2;SDS_P1;SDS_P2;PMS_P1;PMS_P2;Temp;Humidity;BMP_temperature;BMP_pressure;BME280_temperature;BME280_humidity;BME280_pressure;Samples;Min_cycle;Max_cycle;Signal;HPM_P1;HPM_P2
2022/03/09 00:00:37;;;;;;;19.4;13.2;;;;;;;-1.11;63.81738;941.6548;;;;
2022/03/09 00:03:11;;;;;;;17.4;12.6;;;;;;;-1.17;64.18555;941.5644;;;;
2022/03/09 00:05:48;;;;;;;18.8;13.5;;;;;;;-1.25;64.65039;941.61;;;;
2022/03/09 00:11:09;;;;;;;22.1;13.1;;;;;;;-1.18;64.16016;941.5458;;;;
2022/03/09 00:13:35;;;;;;;17.8;12.7;;;;;;;-1.19;63.68262;941.5142;;;;
2022/03/09 00:16:13;;;;;;;16.7;12.2;;;;;;;-1.23;63.69824;941.6177;;;;
2022/03/09 00:18:40;;;;;;;17;12.3;;;;;;;-1.22;63.96777;941.6699;;;;
2022/03/09 00:21:17;;;;;;;20;13.1;;;;;;;-1.3;64.54199;941.6289;;;;
2022/03/09 00:23:50;;;;;;;26.5;16.1;;;;;;;-1.43;65.13379;941.6351;;;;
2022/03/09 00:26:19;;;;;;;26.1;16.2;;;;;;;-1.52;65.50781;941.6195;;;;
2022/03/09 00:28:58;;;;;;;21.8;14.6;;;;;;;-1.49;65.37891;941.5963;;;;
2022/03/09 00:31:43;;;;;;;23.3;15.4;;;;;;;-1.47;65.03906;941.5947;;;;
2022/03/09 00:34:16;;;;;;;21;14.5;;;;;;;-1.45;64.99902;941.6312;;;;
2022/03/09 00:36:59;;;;;;;22.5;14.7;;;;;;;-1.61;65.60449;941.6484;;;;
2022/03/09 00:39:31;;;;;;;22.7;14.6;;;;;;;-1.69;65.82617;941.6385;;;;
2022/03/09 00:42:00;;;;;;;24.8;14.3;;;;;;;-1.57;65.62305;941.5887;;;;
2022/03/09 00:44:36;;;;;;;20.3;13.8;;;;;;;-1.6;65.68555;941.7158;;;;
2022/03/09 00:47:02;;;;;;;19.9;13.7;;;;;;;-1.68;66.15918;941.7122;;;;
2022/03/09 00:58:24;;;;;;;19.7;12.9;;;;;;;-1.68;66.21484;941.7653;;;;
2022/03/09 01:00:50;;;;;;;18.4;12.5;;;;;;;-1.64;65.87793;941.8254;;;;
2022/03/09 01:03:15;;;;;;;17.2;12.1;;;;;;;-1.55;65.59375;941.8869;;;;
2022/03/09 01:05:43;;;;;;;18.1;13;;;;;;;-1.67;65.94043;941.9916;;;;
2022/03/09 01:08:09;;;;;;;17.2;12.2;;;;;;;-1.74;66.16016;941.9683;;;;
2022/03/09 01:10:33;;;;;;;17.3;13.1;;;;;;;-1.77;66.3457;941.8459;;;;
2022/03/09 01:13:03;;;;;;;16;11.4;;;;;;;-1.77;65.50293;941.8819;;;;
2022/03/09 01:16:53;;;;;;;17.7;11.6;;;;;;;-1.64;65.10156;941.9355;;;;
2022/03/09 01:19:07;;;;;;;12.3;8.9;;;;;;;-1.62;61.38672;941.8058;;;;
2022/03/09 01:21:31;;;;;;;13.1;9.6;;;;;;;-1.29;60.625;941.8432;;;;
2022/03/09 01:23:59;;;;;;;12.2;9.2;;;;;;;-1.1;58.40723;941.8014;;;;
2022/03/09 01:26:26;;;;;;;15.4;11;;;;;;;-1.25;60.60742;941.7166;;;;
2022/03/09 01:28:53;;;;;;;15.8;11.1;;;;;;;-1.38;61.87598;941.7266;;;;
2022/03/09 01:31:19;;;;;;;16.4;11.6;;;;;;;-1.42;62.43652;941.8364;;;;
2022/03/09 01:38:44;;;;;;;18.8;12.7;;;;;;;-1.66;65.30762;941.9099;;;;
2022/03/09 01:41:24;;;;;;;19.3;12.3;;;;;;;-1.81;66.17285;941.8978;;;;
2022/03/09 01:43:51;;;;;;;20.2;13.1;;;;;;;-1.9;66.91211;941.949;;;;
2022/03/09 01:46:16;;;;;;;18.9;13.3;;;;;;;-1.89;66.69238;941.9741;;;;
2022/03/09 01:48:58;;;;;;;20.3;13.3;;;;;;;-1.88;66.51758;941.9256;;;;
2022/03/09 01:51:25;;;;;;;21.6;13.4;;;;;;;-1.97;66.34668;942.0045;;;;
2022/03/09 01:53:50;;;;;;;20;13.3;;;;;;;-2.1;66.83691;941.9668;;;;
2022/03/09 01:56:18;;;;;;;23.6;14.3;;;;;;;-2.21;67.28516;941.9639;;;;
2022/03/09 01:58:44;;;;;;;18.7;13.1;;;;;;;-2.19;67.30957;942.0207;;;;
2022/03/09 02:01:16;;;;;;;20.3;13.7;;;;;;;-2.15;67.22656;941.9949;;;;
2022/03/09 02:04:50;;;;;;;19.7;13.2;;;;;;;-2.22;67.48242;941.9601;;;;
2022/03/09 02:07:15;;;;;;;17;12.4;;;;;;;-2.21;67.56152;942.0872;;;;
2022/03/09 02:09:44;;;;;;;17.2;12.5;;;;;;;-2.3;67.75586;942.082;;;;
2022/03/09 02:12:06;;;;;;;19.5;13.2;;;;;;;-2.31;68.01074;942.0492;;;;
2022/03/09 02:14:56;;;;;;;20.7;13.5;;;;;;;-2.4;68.38281;942.0008;;;;
2022/03/09 02:17:25;;;;;;;21.3;12.9;;;;;;;-2.49;68.75684;941.9669;;;;
2022/03/09 02:19:50;;;;;;;20.1;13.4;;;;;;;-2.47;68.85938;942.0209;;;;
2022/03/09 02:22:15;;;;;;;23;14;;;;;;;-2.51;69.01855;942.0027;;;;
2022/03/09 02:24:40;;;;;;;22.9;14.9;;;;;;;-2.59;69.34961;942.0275;;;;
2022/03/09 02:27:05;;;;;;;21.4;15;;;;;;;-2.57;69.66211;942.0055;;;;
2022/03/09 02:29:35;;;;;;;20.9;14;;;;;;;-2.44;69.16309;942.0457;;;;
2022/03/09 02:32:00;;;;;;;21.2;14.3;;;;;;;-2.44;69.12988;941.9979;;;;
2022/03/09 02:34:25;;;;;;;19;13.9;;;;;;;-2.47;68.99219;942.0695;;;;
2022/03/09 02:36:57;;;;;;;18.8;13.5;;;;;;;-2.51;69.1084;942.0302;;;;
2022/03/09 02:39:26;;;;;;;18.7;13.1;;;;;;;-2.54;69.10352;942.0909;;;;
2022/03/09 02:41:51;;;;;;;18.1;12.6;;;;;;;-2.52;69.27246;942.1078;;;;
2022/03/09 02:44:19;;;;;;;17.6;12.8;;;;;;;-2.45;68.57422;941.9941;;;;
2022/03/09 02:46:44;;;;;;;17.9;12.4;;;;;;;-2.34;67.88379;942.0686;;;;
2022/03/09 02:49:13;;;;;;;18.2;12.6;;;;;;;-2.45;68.3418;942.1017;;;;
2022/03/09 02:51:38;;;;;;;20;14;;;;;;;-2.64;68.72168;942.0414;;;;
2022/03/09 02:54:08;;;;;;;24.5;15;;;;;;;-2.53;68.62793;942.0295;;;;
2022/03/09 02:57:05;;;;;;;22;14.9;;;;;;;-2.58;68.58594;942.009;;;;
2022/03/09 02:59:30;;;;;;;24;15.7;;;;;;;-2.64;69.00977;942.0233;;;;
2022/03/09 03:01:59;;;;;;;23.2;14.8;;;;;;;-2.7;69.5752;941.8745;;;;
2022/03/09 03:04:24;;;;;;;19.9;13.7;;;;;;;-2.78;70.10352;941.9309;;;;
2022/03/09 03:06:55;;;;;;;20.2;12.8;;;;;;;-2.82;69.83105;941.9542;;;;
2022/03/09 03:09:24;;;;;;;19.4;12.6;;;;;;;-2.8;69.56934;941.9453;;;;
2022/03/09 03:11:49;;;;;;;17.8;12.4;;;;;;;-2.75;68.80273;941.9459;;;;
2022/03/09 03:14:20;;;;;;;19.8;13.5;;;;;;;-2.71;68.65332;942.0397;;;;
2022/03/09 03:16:53;;;;;;;22;13.9;;;;;;;-2.71;68.07813;942.0275;;;;
2022/03/09 03:19:25;;;;;;;17.2;13.1;;;;;;;-2.74;67.97363;942.0181;;;;
2022/03/09 03:21:50;;;;;;;15.9;11.3;;;;;;;-2.66;67.5;941.9294;;;;
2022/03/09 03:24:19;;;;;;;16.8;11.8;;;;;;;-2.62;67.21973;941.9592;;;;
2022/03/09 03:26:44;;;;;;;17.5;11.7;;;;;;;-2.55;66.98633;941.9372;;;;
2022/03/09 03:29:13;;;;;;;17.9;11.7;;;;;;;-2.4;66.44434;941.9886;;;;
2022/03/09 03:31:38;;;;;;;17.2;12.1;;;;;;;-2.47;66.24707;941.9411;;;;
2022/03/09 03:34:06;;;;;;;17.6;12.2;;;;;;;-2.56;66.74121;941.9771;;;;
2022/03/09 03:36:31;;;;;;;18.4;11.1;;;;;;;-2.59;67.04492;941.9835;;;;
2022/03/09 03:38:57;;;;;;;16;11.5;;;;;;;-2.7;67.48145;941.9453;;;;
2022/03/09 03:41:22;;;;;;;17.1;11.6;;;;;;;-2.69;67.30566;941.9387;;;;
2022/03/09 03:43:48;;;;;;;16;11.4;;;;;;;-2.63;67.19434;942.0236;;;;
2022/03/09 03:46:13;;;;;;;16.4;11.9;;;;;;;-2.68;67.50781;941.9952;;;;
2022/03/09 03:48:43;;;;;;;16.2;11.6;;;;;;;-2.78;68.14355;942.0226;;;;
2022/03/09 03:51:08;;;;;;;17.2;11.9;;;;;;;-2.84;68.34473;941.9647;;;;
2022/03/09 03:53:37;;;;;;;17.4;12;;;;;;;-2.9;68.50195;941.9409;;;;
2022/03/09 03:56:02;;;;;;;17.7;11.7;;;;;;;-2.99;68.71777;942.0081;;;;
2022/03/09 03:58:29;;;;;;;18.2;11.2;;;;;;;-2.99;68.88379;942.0517;;;;
2022/03/09 04:02:40;;;;;;;16.4;10.8;;;;;;;-2.86;68.17578;942.0578;;;;
2022/03/09 04:05:06;;;;;;;18;11;;;;;;;-2.78;68.04395;942.0989;;;;
2022/03/09 04:07:30;;;;;;;19.4;11.9;;;;;;;-2.82;68.22656;941.9807;;;;
2022/03/09 04:09:56;;;;;;;16.9;11.9;;;;;;;-2.93;68.78418;942.0126;;;;
2022/03/09 04:12:21;;;;;;;17.6;12;;;;;;;-2.98;69.33887;942.0047;;;;
2022/03/09 04:14:49;;;;;;;17.9;12.1;;;;;;;-2.88;68.74707;942.0898;;;;
2022/03/09 04:17:50;;;;;;;18.6;12.1;;;;;;;-2.86;68.68555;942.0416;;;;
2022/03/09 04:20:14;;;;;;;19.5;13.3;;;;;;;-2.83;68.89844;942.0828;;;;
2022/03/09 04:22:41;;;;;;;19.9;13.6;;;;;;;-2.92;69.09668;942.1041;;;;
2022/03/09 04:25:06;;;;;;;20.1;12.9;;;;;;;-2.91;68.66699;942.1406;;;;
2022/03/09 04:27:56;;;;;;;18.6;11.4;;;;;;;-3.02;68.97949;942.1345;;;;
2022/03/09 04:30:24;;;;;;;22.1;13.1;;;;;;;-3.18;70.22363;942.1089;;;;
2022/03/09 04:32:49;;;;;;;17.7;12.2;;;;;;;-3.24;70.50195;942.1183;;;;
2022/03/09 04:35:19;;;;;;;17.8;11.8;;;;;;;-3.29;70.74707;942.2104;;;;
2022/03/09 04:37:48;;;;;;;19.2;12.1;;;;;;;-3.26;70.61914;942.2199;;;;
2022/03/09 04:40:13;;;;;;;18.9;12;;;;;;;-3.27;70.93848;942.2255;;;;
2022/03/09 04:42:41;;;;;;;40.4;36.2;;;;;;;-3.32;71.24023;942.1819;;;;
2022/03/09 04:45:07;;;;;;;17.1;11.9;;;;;;;-3.25;70.96484;942.2849;;;;
2022/03/09 04:47:32;;;;;;;17.8;12.2;;;;;;;-3.32;71.28418;942.253;;;;
2022/03/09 04:49:59;;;;;;;20.8;14.5;;;;;;;-3.27;70.80664;942.314;;;;
2022/03/09 04:52:24;;;;;;;27.6;14.8;;;;;;;-3.1;69.78516;942.317;;;;
2022/03/09 04:54:49;;;;;;;18.8;13.4;;;;;;;-3.09;69.6416;942.4242;;;;
2022/03/09 04:57:14;;;;;;;20.9;13.3;;;;;;;-3.12;69.43848;942.4263;;;;
2022/03/09 04:59:39;;;;;;;23.7;13.4;;;;;;;-3.14;69.42285;942.4158;;;;
2022/03/09 05:02:04;;;;;;;17.4;12.6;;;;;;;-3.12;69.2832;942.4658;;;;
2022/03/09 05:04:32;;;;;;;18.7;12.9;;;;;;;-3.26;69.69238;942.5421;;;;
2022/03/09 05:06:57;;;;;;;20.3;13.4;;;;;;;-3.27;69.93262;942.4936;;;;
2022/03/09 05:09:52;;;;;;;20.1;12.5;;;;;;;-3.24;69.98242;942.5698;;;;
2022/03/09 05:12:17;;;;;;;21.3;15.3;;;;;;;-3.32;70.27734;942.5952;;;;
2022/03/09 05:14:47;;;;;;;21.4;15.4;;;;;;;-3.4;70.99414;942.6517;;;;
2022/03/09 05:17:17;;;;;;;21.2;14.6;;;;;;;-3.37;71.05371;942.6337;;;;
2022/03/09 05:27:52;;;;;;;23.6;16.1;;;;;;;-3.63;72.71191;942.8225;;;;
2022/03/09 05:34:09;;;;;;;25.1;14;;;;;;;-3.78;72.51953;942.829;;;;
2022/03/09 05:36:34;;;;;;;35.7;20.9;;;;;;;-3.65;72.23242;942.8361;;;;
2022/03/09 05:38:59;;;;;;;40.2;24;;;;;;;-3.54;71.7666;942.8876;;;;
2022/03/09 05:41:27;;;;;;;31.2;19.3;;;;;;;-3.31;70.46777;942.9353;;;;
2022/03/09 05:43:52;;;;;;;29.6;17.1;;;;;;;-3.21;69.76563;942.9578;;;;
2022/03/09 05:46:20;;;;;;;34.8;18.6;;;;;;;-3.26;69.19434;942.9297;;;;
2022/03/09 05:48:45;;;;;;;28.2;17.4;;;;;;;-3.19;68.69629;942.8464;;;;
2022/03/09 05:51:13;;;;;;;28;15.4;;;;;;;-3.13;68.84082;942.8851;;;;
2022/03/09 05:57:16;;;;;;;20.4;12.4;;;;;;;-3.14;68.33887;943.1005;;;;
2022/03/09 05:59:42;;;;;;;22.1;13.4;;;;;;;-3.17;68.87695;943.0988;;;;
2022/03/09 06:02:07;;;;;;;23.4;13.9;;;;;;;-3.18;69.33008;943.0857;;;;
2022/03/09 06:04:34;;;;;;;22;13.6;;;;;;;-3.21;69.58008;943.1995;;;;
2022/03/09 06:06:59;;;;;;;30.6;15;;;;;;;-3.22;69.58789;943.1848;;;;
2022/03/09 06:09:25;;;;;;;27.5;16.3;;;;;;;-3.31;69.81738;943.1521;;;;
2022/03/09 06:11:50;;;;;;;25.4;15.4;;;;;;;-3.24;69.79492;943.0869;;;;
2022/03/09 06:14:18;;;;;;;24.7;14.3;;;;;;;-3.17;69.49609;943.1945;;;;
2022/03/09 06:16:53;;;;;;;24.8;13.4;;;;;;;-3.19;69.79102;943.2451;;;;
2022/03/09 06:19:20;;;;;;;19.6;12.2;;;;;;;-2.81;68.98047;943.2377;;;;
2022/03/09 06:23:06;;;;;;;17.6;11;;;;;;;-1.78;64.88086;943.1947;;;;
2022/03/09 06:25:26;;;;;;;19.8;11.1;;;;;;;-0.82;61.4043;943.1739;;;;
2022/03/09 06:27:56;;;;;;;20.2;10.8;;;;;;;-0.27;59.03516;943.1677;;;;
2022/03/09 06:30:21;;;;;;;17.5;11.2;;;;;;;0.11;58.18555;943.2525;;;;
2022/03/09 06:32:48;;;;;;;27;13.5;;;;;;;0.31;57.36621;943.2184;;;;
2022/03/09 06:35:13;;;;;;;23;13;;;;;;;0.35;56.63477;943.2404;;;;
2022/03/09 06:37:42;;;;;;;26.4;15.6;;;;;;;0.76;56.17676;943.1741;;;;
2022/03/09 06:40:07;;;;;;;28.3;14.4;;;;;;;1.59;53.3916;943.2216;;;;
2022/03/09 06:42:33;;;;;;;21.7;13.5;;;;;;;1.41;53.25684;943.1937;;;;
2022/03/09 06:45:10;;;;;;;22.3;13.4;;;;;;;1.2;53.92383;943.279;;;;
2022/03/09 06:47:38;;;;;;;24.6;13.4;;;;;;;1.3;54.95215;943.2642;;;;
2022/03/09 06:50:02;;;;;;;23.7;13.6;;;;;;;1.33;54.30859;943.2048;;;;
2022/03/09 06:52:29;;;;;;;20.4;12.3;;;;;;;1.33;52.67676;943.2213;;;;
2022/03/09 06:54:54;;;;;;;22;13.4;;;;;;;1.71;51.31445;943.1635;;;;
2022/03/09 06:57:29;;;;;;;24.8;12.7;;;;;;;2.54;48.15332;943.1183;;;;
2022/03/09 06:59:54;;;;;;;26.6;13.7;;;;;;;3.47;46.99121;943.0762;;;;
2022/03/09 07:02:20;;;;;;;43.8;25.9;;;;;;;2.95;47.5498;942.9995;;;;
2022/03/09 07:04:49;;;;;;;23;12.3;;;;;;;3.01;47.7041;943.0642;;;;
2022/03/09 07:07:14;;;;;;;23.5;13.2;;;;;;;2.5;48.77734;943.0947;;;;
2022/03/09 07:09:42;;;;;;;29.4;15.9;;;;;;;2.21;48.2959;943.1284;;;;
2022/03/09 07:12:08;;;;;;;27.8;16.7;;;;;;;1.76;48.09961;943.1355;;;;
2022/03/09 07:14:33;;;;;;;39;22.5;;;;;;;2.28;47.37402;943.1271;;;;
2022/03/09 07:17:03;;;;;;;30;15;;;;;;;2.38;47.13867;943.2098;;;;
2022/03/09 07:19:35;;;;;;;15.4;9.9;;;;;;;3.03;42.75684;943.2073;;;;
2022/03/09 07:22:00;;;;;;;12.1;8.5;;;;;;;3.53;42.03223;943.1939;;;;
2022/03/09 07:24:30;;;;;;;17.3;8.8;;;;;;;4.15;43.92676;943.1807;;;;
2022/03/09 07:26:56;;;;;;;15.8;10.4;;;;;;;4.43;41.87402;943.1717;;;;
2022/03/09 07:29:20;;;;;;;16.4;10.8;;;;;;;4.21;40.75;943.1624;;;;
2022/03/09 07:31:49;;;;;;;16.1;10.6;;;;;;;4;40.85352;943.1106;;;;
2022/03/09 07:34:14;;;;;;;19.3;9.2;;;;;;;4.43;39.52148;942.9762;;;;
2022/03/09 07:36:43;;;;;;;9.7;6.3;;;;;;;4.5;38.84082;943.0529;;;;
2022/03/09 07:39:35;;;;;;;9.3;6;;;;;;;5.32;37.50488;943.0173;;;;
2022/03/09 07:42:04;;;;;;;8.5;5.7;;;;;;;5.83;37.29004;942.9496;;;;
2022/03/09 07:44:29;;;;;;;10.2;6;;;;;;;5.7;37.01855;942.9675;;;;
2022/03/09 07:46:57;;;;;;;9.3;5.8;;;;;;;6.3;36.65332;942.9734;;;;
2022/03/09 07:49:22;;;;;;;9.9;5.2;;;;;;;7.53;35.00098;942.9318;;;;
2022/03/09 07:51:50;;;;;;;9.1;5.9;;;;;;;7.79;33.5127;942.9091;;;;
2022/03/09 07:54:18;;;;;;;8.5;5.7;;;;;;;7.18;32.72949;942.8714;;;;
2022/03/09 07:56:44;;;;;;;9.3;5.6;;;;;;;6.89;33.80566;942.9313;;;;
2022/03/09 07:59:12;;;;;;;9.4;6.1;;;;;;;8.15;33.07617;942.8893;;;;
2022/03/09 08:01:44;;;;;;;8.5;5.8;;;;;;;10.21;30.09668;942.7494;;;;
2022/03/09 08:06:40;;;;;;;8.9;5.7;;;;;;;9.13;29.9082;942.7327;;;;
2022/03/09 08:09:03;;;;;;;9.8;5.4;;;;;;;8.23;31.48047;942.686;;;;
2022/03/09 08:11:33;;;;;;;11.5;5.6;;;;;;;10.08;29.89355;942.6846;;;;
2022/03/09 08:17:59;;;;;;;13.4;6.4;;;;;;;12.26;26.10156;942.5731;;;;
2022/03/09 08:20:30;;;;;;;7.4;5;;;;;;;10.71;27.12793;942.4767;;;;
2022/03/09 08:22:59;;;;;;;9.2;5.5;;;;;;;11.08;25.76758;942.443;;;;
2022/03/09 08:25:32;;;;;;;8;5.3;;;;;;;10.73;26.18066;942.3949;;;;
2022/03/09 08:28:01;;;;;;;7.8;5.5;;;;;;;9.77;26.89746;942.3936;;;;
2022/03/09 08:30:26;;;;;;;8;5.5;;;;;;;13.12;25.6709;942.387;;;;
2022/03/09 08:32:55;;;;;;;7.1;5.1;;;;;;;14.18;22.6582;942.3235;;;;
2022/03/09 08:35:21;;;;;;;8.3;4.7;;;;;;;15.21;22.25098;942.2974;;;;
2022/03/09 08:37:47;;;;;;;8.8;5;;;;;;;17.52;19.35156;942.3416;;;;
2022/03/09 08:40:13;;;;;;;8.6;4.9;;;;;;;16.7;19.63965;942.3463;;;;
2022/03/09 08:42:40;;;;;;;5.7;4.4;;;;;;;15.54;20.06152;942.3107;;;;
2022/03/09 08:45:05;;;;;;;8.2;5;;;;;;;14.37;21.80469;942.3;;;;
2022/03/09 08:47:31;;;;;;;9.3;6.1;;;;;;;17.58;19.31934;942.3328;;;;
2022/03/09 08:49:57;;;;;;;6.2;4.4;;;;;;;19.78;17.67871;942.3027;;;;
2022/03/09 08:52:26;;;;;;;6.9;3.8;;;;;;;20;17.37305;942.3332;;;;
2022/03/09 08:54:56;;;;;;;7.1;4.2;;;;;;;18.13;18.36816;942.4201;;;;
2022/03/09 08:57:21;;;;;;;6.2;4.2;;;;;;;19.51;16.84082;942.4283;;;;
2022/03/09 08:59:48;;;;;;;5.7;4.3;;;;;;;19.96;16.85742;942.3938;;;;
2022/03/09 09:02:13;;;;;;;6.7;4.1;;;;;;;18.33;17.65527;942.4185;;;;
2022/03/09 09:04:41;;;;;;;7;3.9;;;;;;;19.82;17.28418;942.3561;;;;
2022/03/09 09:07:07;;;;;;;5.2;4;;;;;;;20.34;16.74414;942.38;;;;
2022/03/09 09:09:34;;;;;;;5.6;4.1;;;;;;;21.7;15.64746;942.3309;;;;
2022/03/09 09:12:01;;;;;;;8.5;4.2;;;;;;;20.66;16.27734;942.4871;;;;
2022/03/09 09:14:28;;;;;;;5.6;4.2;;;;;;;20.74;15.60156;942.4585;;;;
2022/03/09 09:16:55;;;;;;;6.6;4.2;;;;;;;22.08;15.4502;942.4016;;;;
2022/03/09 09:19:23;;;;;;;12.1;6;;;;;;;21.33;15.37695;942.4149;;;;
2022/03/09 09:21:53;;;;;;;7.1;4.4;;;;;;;22.56;14.59766;942.3784;;;;
2022/03/09 09:24:18;;;;;;;8.2;4.8;;;;;;;22.53;15.41895;942.363;;;;
2022/03/09 09:26:44;;;;;;;7.4;4.4;;;;;;;23.03;14.50781;942.3965;;;;
2022/03/09 09:29:09;;;;;;;6;4.5;;;;;;;22.63;14.56543;942.4001;;;;
2022/03/09 09:31:36;;;;;;;5.9;4.1;;;;;;;23.48;14.42773;942.3848;;;;
2022/03/09 09:34:02;;;;;;;6.2;4.5;;;;;;;24.11;13.4834;942.3599;;;;
2022/03/09 09:36:28;;;;;;;7;4.6;;;;;;;23.74;14.18945;942.3499;;;;
2022/03/09 09:38:53;;;;;;;5.7;4.2;;;;;;;23.99;13.43262;942.3387;;;;
2022/03/09 09:41:24;;;;;;;6.7;4.1;;;;;;;24.04;13.63379;942.3639;;;;
2022/03/09 09:43:44;;;;;;;7.3;4.3;;;;;;;22.96;14.94043;942.3003;;;;
2022/03/09 09:46:11;;;;;;;5.3;4.1;;;;;;;22.93;13.91699;942.2841;;;;
2022/03/09 09:48:36;;;;;;;4.4;3.8;;;;;;;22.73;13.7002;942.2964;;;;
2022/03/09 09:51:04;;;;;;;5.9;3.8;;;;;;;22.01;13.68945;942.2748;;;;
2022/03/09 09:53:30;;;;;;;6.4;4.1;;;;;;;20.46;15.39355;942.3002;;;;
2022/03/09 09:55:59;;;;;;;7.5;4.8;;;;;;;19.09;16.68457;942.28;;;;
2022/03/09 09:58:25;;;;;;;6.7;4;;;;;;;19.08;16.94043;942.2817;;;;
2022/03/09 10:00:52;;;;;;;6.8;4.8;;;;;;;18.84;17.19922;942.2363;;;;
2022/03/09 10:03:17;;;;;;;8.5;5.8;;;;;;;19.36;16.60156;942.2813;;;;
2022/03/09 10:05:43;;;;;;;7.2;5.2;;;;;;;18.86;17.03711;942.2536;;;;
2022/03/09 10:08:09;;;;;;;7.8;5;;;;;;;19.1;17.08105;942.296;;;;
2022/03/09 10:10:36;;;;;;;7.2;5.5;;;;;;;19.64;16.97363;942.2883;;;;
2022/03/09 10:13:01;;;;;;;13.2;7.2;;;;;;;19.81;16.875;942.3053;;;;
2022/03/09 10:15:26;;;;;;;8.7;6.5;;;;;;;19.65;16.70605;942.2736;;;;
2022/03/09 10:17:52;;;;;;;8.7;6.1;;;;;;;18.87;17.17676;942.2374;;;;
2022/03/09 10:20:23;;;;;;;8.6;6;;;;;;;19.1;16.9873;942.2936;;;;
2022/03/09 10:22:45;;;;;;;9.1;5.8;;;;;;;19.55;17.17969;942.2573;;;;
2022/03/09 10:25:13;;;;;;;8.1;5.5;;;;;;;19.36;17.28906;942.199;;;;
2022/03/09 10:27:43;;;;;;;8.3;5.5;;;;;;;19.53;16.74805;942.2244;;;;
2022/03/09 10:30:08;;;;;;;7.5;5.4;;;;;;;18.73;17.15918;942.2426;;;;
2022/03/09 10:32:34;;;;;;;8;5.6;;;;;;;17.32;19.35449;942.2281;;;;
2022/03/09 10:35:00;;;;;;;7.6;5.6;;;;;;;17.47;19.1875;942.2567;;;;
2022/03/09 10:37:26;;;;;;;8.4;5.1;;;;;;;17.88;18.26465;942.1972;;;;
2022/03/09 10:39:54;;;;;;;7.5;5.3;;;;;;;18.58;17.89844;942.2072;;;;
2022/03/09 10:42:19;;;;;;;8.7;5.5;;;;;;;18.23;18.75586;942.2167;;;;
2022/03/09 10:44:44;;;;;;;8.3;5.8;;;;;;;17.84;18.65723;942.1542;;;;
2022/03/09 10:47:12;;;;;;;7.3;4.9;;;;;;;18.34;18.8418;942.2006;;;;
2022/03/09 10:49:37;;;;;;;8.4;5.1;;;;;;;17.13;19.02148;942.1476;;;;
2022/03/09 10:52:05;;;;;;;8.2;5.5;;;;;;;16.59;19.95898;942.1976;;;;
2022/03/09 10:54:30;;;;;;;10.7;6.1;;;;;;;16.74;20.09375;942.1939;;;;
2022/03/09 10:56:58;;;;;;;9.6;6.3;;;;;;;17.22;19.23438;942.2378;;;;
2022/03/09 10:59:26;;;;;;;7.6;5.8;;;;;;;17.83;19.17969;942.0891;;;;
2022/03/09 11:01:51;;;;;;;9.9;6.2;;;;;;;17.67;19.31152;942.1033;;;;
2022/03/09 11:04:16;;;;;;;9.8;6.3;;;;;;;18.62;18.41211;942.0688;;;;
2022/03/09 11:06:46;;;;;;;9.8;6.8;;;;;;;18.65;18.30859;942.0421;;;;
2022/03/09 11:09:07;;;;;;;10;6.4;;;;;;;18.8;18.43066;942.0219;;;;
2022/03/09 11:11:38;;;;;;;10.3;6.4;;;;;;;17.89;19.85547;941.9264;;;;
2022/03/09 11:14:01;;;;;;;10.1;7.1;;;;;;;17.57;19.69043;941.9383;;;;
2022/03/09 11:16:32;;;;;;;10;6.6;;;;;;;16.97;20.03418;941.9469;;;;
2022/03/09 11:18:57;;;;;;;10.8;7.3;;;;;;;17.39;20.01855;941.9175;;;;
2022/03/09 11:21:23;;;;;;;9.8;7;;;;;;;18.5;19.23242;941.801;;;;
2022/03/09 11:23:53;;;;;;;11.7;7.8;;;;;;;18.44;19.24121;941.8745;;;;
2022/03/09 11:26:20;;;;;;;11.7;7.5;;;;;;;18.97;18.86914;941.7272;;;;
2022/03/09 11:28:47;;;;;;;10;6.9;;;;;;;18.86;18.45605;941.7065;;;;
2022/03/09 11:31:12;;;;;;;9.9;6.8;;;;;;;18.62;18.45801;941.7686;;;;
2022/03/09 11:33:37;;;;;;;10.3;6.8;;;;;;;19.28;18.29883;941.74;;;;
2022/03/09 11:36:08;;;;;;;11.8;6.9;;;;;;;20.37;17.78418;941.7864;;;;
2022/03/09 11:38:36;;;;;;;11.3;7.4;;;;;;;20.39;17.80762;941.7667;;;;
2022/03/09 11:41:01;;;;;;;10.5;6.9;;;;;;;19.95;17.74414;941.7142;;;;
2022/03/09 11:43:26;;;;;;;10;6.9;;;;;;;19.9;18.7334;941.7767;;;;
2022/03/09 11:45:53;;;;;;;11.1;7;;;;;;;19.57;18.37012;941.7924;;;;
2022/03/09 11:48:20;;;;;;;11.8;7.5;;;;;;;20.32;18.2373;941.6581;;;;
2022/03/09 11:50:44;;;;;;;11.1;7.5;;;;;;;20.13;18.18262;941.7187;;;;
2022/03/09 11:53:14;;;;;;;11.7;7.1;;;;;;;21.38;17.2168;941.6639;;;;
2022/03/09 11:55:39;;;;;;;13.7;7.1;;;;;;;21.11;17.47461;941.6956;;;;
2022/03/09 11:58:08;;;;;;;9.6;6.7;;;;;;;22.33;16.50195;941.6206;;;;
2022/03/09 12:00:33;;;;;;;11.5;7.9;;;;;;;22.35;15.96387;941.5754;;;;
2022/03/09 12:03:01;;;;;;;12.9;8;;;;;;;21.29;17.25977;941.5723;;;;
2022/03/09 12:05:26;;;;;;;11.5;7.1;;;;;;;20.89;17.05664;941.4961;;;;
2022/03/09 12:07:51;;;;;;;11.4;7.9;;;;;;;20.2;17.8125;941.4794;;;;
2022/03/09 12:13:58;;;;;;;13.3;7.9;;;;;;;19.06;19.04688;941.4799;;;;
2022/03/09 12:16:28;;;;;;;12.8;8;;;;;;;20.65;17.45605;941.4175;;;;
2022/03/09 12:18:52;;;;;;;11.4;7.6;;;;;;;20.2;18.15039;941.3994;;;;
2022/03/09 12:21:17;;;;;;;12;8.1;;;;;;;20.16;18.34766;941.4042;;;;
2022/03/09 12:23:42;;;;;;;11.8;7.6;;;;;;;20.11;18.35742;941.3198;;;;
2022/03/09 12:26:07;;;;;;;14.7;8.5;;;;;;;20.03;18.33105;941.4509;;;;
2022/03/09 12:28:36;;;;;;;12.1;8.3;;;;;;;19.96;18.00098;941.3987;;;;
2022/03/09 12:31:04;;;;;;;13.4;8.5;;;;;;;20.53;17.51074;941.4086;;;;
2022/03/09 12:33:29;;;;;;;15.3;8.5;;;;;;;21.5;17.34961;941.3296;;;;
2022/03/09 12:35:55;;;;;;;15.8;8.6;;;;;;;22.85;16.41602;941.3042;;;;
2022/03/09 12:38:23;;;;;;;13.2;8.1;;;;;;;22.28;16.28906;941.3666;;;;
2022/03/09 12:40:52;;;;;;;12.9;7.8;;;;;;;23.53;16.04102;941.3089;;;;
2022/03/09 12:43:20;;;;;;;12.3;8.3;;;;;;;23.85;15.55859;941.2798;;;;
2022/03/09 12:45:45;;;;;;;13.3;8.5;;;;;;;24.47;14.95508;941.2595;;;;
2022/03/09 12:48:10;;;;;;;12.7;8.5;;;;;;;24.85;15.27539;941.2593;;;;
2022/03/09 12:50:35;;;;;;;11.9;8.4;;;;;;;23.41;15.64844;941.274;;;;
2022/03/09 12:53:00;;;;;;;13.2;8.5;;;;;;;23.01;16.66797;941.2883;;;;
2022/03/09 12:55:27;;;;;;;14.5;8.7;;;;;;;24.12;15.67383;941.2583;;;;
2022/03/09 12:57:53;;;;;;;14;8.9;;;;;;;22.88;16.12305;941.157;;;;
2022/03/09 13:00:18;;;;;;;13.3;9.1;;;;;;;21.78;17.80566;941.2514;;;;
2022/03/09 13:02:43;;;;;;;12.6;9;;;;;;;22.53;16.8623;941.26;;;;
2022/03/09 13:05:15;;;;;;;12.1;8.8;;;;;;;22.06;16.63281;941.2303;;;;
2022/03/09 13:07:40;;;;;;;14.1;9.4;;;;;;;22.49;16.28516;941.2442;;;;
2022/03/09 13:10:06;;;;;;;13.6;8.8;;;;;;;23.35;16.25781;941.2186;;;;
2022/03/09 13:12:30;;;;;;;14.1;9.1;;;;;;;22.35;17.69922;941.2248;;;;
2022/03/09 13:14:55;;;;;;;13.7;9.4;;;;;;;22.53;17.38965;941.1944;;;;
2022/03/09 13:17:23;;;;;;;14;9.6;;;;;;;23.54;16.3125;941.1503;;;;
2022/03/09 13:19:52;;;;;;;14.6;8.7;;;;;;;23.44;16.29688;941.1353;;;;
2022/03/09 13:22:22;;;;;;;14.9;8.7;;;;;;;23.38;16.84668;941.1231;;;;
2022/03/09 13:24:47;;;;;;;14.9;9.2;;;;;;;23.81;15.70996;941.0887;;;;
2022/03/09 13:27:12;;;;;;;12.8;8.9;;;;;;;22.86;16.69824;941.1171;;;;
2022/03/09 13:29:38;;;;;;;29.9;10.4;;;;;;;21.15;18.48242;941.1569;;;;
2022/03/09 13:32:03;;;;;;;14.6;9.2;;;;;;;21.2;17.43164;941.1319;;;;
2022/03/09 13:34:29;;;;;;;15.9;9.7;;;;;;;21.12;17.95508;941.0668;;;;
2022/03/09 13:36:53;;;;;;;15.3;9;;;;;;;20.5;18.13965;941.1158;;;;
2022/03/09 13:39:23;;;;;;;18.2;8.8;;;;;;;20.82;18.28125;941.1389;;;;
2022/03/09 13:41:49;;;;;;;14.5;8.7;;;;;;;22.34;16.67871;941.0978;;;;
2022/03/09 13:44:14;;;;;;;17.4;8.6;;;;;;;22.58;17.08691;940.9524;;;;
2022/03/09 13:46:43;;;;;;;14.4;8.7;;;;;;;23.84;16.47656;941.0506;;;;
2022/03/09 13:49:08;;;;;;;16.6;9.5;;;;;;;21.82;17.39746;941.038;;;;
2022/03/09 13:53:58;;;;;;;14.5;8.8;;;;;;;19.88;19.3623;941.0666;;;;
2022/03/09 13:56:24;;;;;;;14.7;9.2;;;;;;;20.12;19.50195;941.0154;;;;
2022/03/09 13:58:52;;;;;;;13.1;8.7;;;;;;;19.4;20.11035;940.9931;;;;
2022/03/09 14:01:15;;;;;;;13.4;8.6;;;;;;;19.53;19.67285;941.0361;;;;
2022/03/09 14:04:06;;;;;;;14.7;9.6;;;;;;;20.41;18.61523;941.0051;;;;
2022/03/09 14:06:31;;;;;;;62.4;12.2;;;;;;;19.72;20.16016;941.0754;;;;
2022/03/09 14:08:59;;;;;;;15.6;8.3;;;;;;;20.62;18.85742;941.0175;;;;
2022/03/09 14:11:26;;;;;;;12.7;8.3;;;;;;;20.93;18.73047;941.0887;;;;
2022/03/09 14:13:52;;;;;;;14.9;9.1;;;;;;;19.09;19.75879;941.0706;;;;
2022/03/09 14:16:21;;;;;;;15.3;9.3;;;;;;;18.68;20.15918;941.0581;;;;
2022/03/09 14:18:46;;;;;;;14.8;9.3;;;;;;;19.61;19.94531;941.0533;;;;
2022/03/09 14:21:14;;;;;;;16;9.7;;;;;;;20.61;18.93848;941.0792;;;;
2022/03/09 14:23:39;;;;;;;14.1;9.3;;;;;;;21.74;17.82715;941.0539;;;;
2022/03/09 14:26:31;;;;;;;14.2;9.6;;;;;;;22.43;17.4209;940.9709;;;;
2022/03/09 14:28:56;;;;;;;16.6;9.7;;;;;;;22.99;17.14941;940.9908;;;;
2022/03/09 14:31:25;;;;;;;15.4;9.3;;;;;;;22.09;17.7002;940.9642;;;;
2022/03/09 14:34:01;;;;;;;15.7;9.4;;;;;;;21.54;17.81934;940.8809;;;;
2022/03/09 14:36:28;;;;;;;15;9.3;;;;;;;19.22;20.04395;941.0201;;;;
2022/03/09 14:39:11;;;;;;;16.9;9.4;;;;;;;19.63;20.13281;941.087;;;;
2022/03/09 14:41:40;;;;;;;16;10.2;;;;;;;19.81;19.39453;941.0048;;;;
2022/03/09 14:44:04;;;;;;;17.4;9.6;;;;;;;18.73;20.75488;940.9492;;;;
2022/03/09 14:46:32;;;;;;;14.8;9.3;;;;;;;19.12;20.12109;941.0566;;;;
2022/03/09 14:48:57;;;;;;;16.2;9.6;;;;;;;19.88;19.4209;941.0618;;;;
2022/03/09 14:51:22;;;;;;;16.3;9.9;;;;;;;19.17;20.27441;941.0748;;;;
2022/03/09 14:53:47;;;;;;;14.4;9.6;;;;;;;18.87;20.67969;941.0108;;;;
2022/03/09 14:56:13;;;;;;;16.4;10.2;;;;;;;18.92;20.3916;941.0034;;;;
2022/03/09 14:58:40;;;;;;;20.5;10.5;;;;;;;16.8;23.09668;941.0408;;;;
2022/03/09 15:01:05;;;;;;;17.5;9.6;;;;;;;16.56;23.24609;941.1069;;;;
2022/03/09 15:03:34;;;;;;;16.5;10.5;;;;;;;16.31;22.66602;940.9882;;;;